Capitol Logistics 338


KMIA
Miami International Airport
Miami, Florida, US
KAUS
Austin-Bergstrom International Airport
Austin, Texas, US

Route Details

Aircraft Information
Primary: Boeing 767-300BDSF
Backup: Not Available
Route Data
Distance: 990nm
Sched. Duration: 2h 45m
Avg. Duration: 2h 56m (+11m)
Times Flown: 4
Recm'd Route: WINCO2 WINCO J73 LBV BAGGS Q102 LEV J86 IAH BITER8
Planned Altitude: 38,000ft
Origin Wx: KMIA 130153Z 21004KT 10SM BKN250 28/23 A2997 RMK AO2 SLP150 T02830228 $
Dest. Wx: KAUS 130153Z 16007KT 10SM FEW250 32/21 A2985 RMK AO2 SLP095 T03220206 $
Notes:

Financial History
Total Freight: 260,443lbs
Average Load: 65,111lbs/flt
Fuel Used: 96,441lbs
Avg. Fuel Used: 24,110lbs/flt
Fuel Expense: $119,780
Avg. Fuel Expense: $29,945
Avg. Fuel Cost: $1.24/lbs
Total Gross Income: $340,467
Pilot Pay: $706
Total Expenses: $36,978
Total Revenue: $181,095
Average Revenue: $85,116.74